sensor_id;sensor_type;location;lat;lon;timestamp;P1;durP1;ratioP1;P2;durP2;ratioP2
28587;SDS011;15787;49.662;10.162;2023-02-13T00:01:14;262.20;;;22.92;;
28587;SDS011;15787;49.662;10.162;2023-02-13T00:03:48;209.65;;;21.20;;
28587;SDS011;15787;49.662;10.162;2023-02-13T00:06:21;225.77;;;21.05;;
28587;SDS011;15787;49.662;10.162;2023-02-13T00:08:54;171.43;;;16.25;;
28587;SDS011;15787;49.662;10.162;2023-02-13T00:11:27;210.02;;;19.85;;
28587;SDS011;15787;49.662;10.162;2023-02-13T00:14:01;162.00;;;16.38;;
28587;SDS011;15787;49.662;10.162;2023-02-13T00:16:34;142.70;;;16.27;;
28587;SDS011;15787;49.662;10.162;2023-02-13T00:19:07;245.63;;;21.23;;
28587;SDS011;15787;49.662;10.162;2023-02-13T00:21:40;152.40;;;16.42;;
28587;SDS011;15787;49.662;10.162;2023-02-13T00:24:16;116.75;;;14.68;;
28587;SDS011;15787;49.662;10.162;2023-02-13T00:26:50;187.25;;;16.27;;
28587;SDS011;15787;49.662;10.162;2023-02-13T00:29:25;171.20;;;16.13;;
28587;SDS011;15787;49.662;10.162;2023-02-13T00:31:57;148.13;;;13.70;;
28587;SDS011;15787;49.662;10.162;2023-02-13T00:34:33;111.30;;;13.32;;
28587;SDS011;15787;49.662;10.162;2023-02-13T00:37:07;192.07;;;15.45;;
28587;SDS011;15787;49.662;10.162;2023-02-13T00:39:40;117.30;;;13.82;;
28587;SDS011;15787;49.662;10.162;2023-02-13T00:42:13;188.63;;;15.90;;
28587;SDS011;15787;49.662;10.162;2023-02-13T00:44:49;175.20;;;15.63;;
28587;SDS011;15787;49.662;10.162;2023-02-13T00:47:22;208.00;;;15.15;;
28587;SDS011;15787;49.662;10.162;2023-02-13T00:49:55;150.10;;;13.85;;
28587;SDS011;15787;49.662;10.162;2023-02-13T00:52:28;100.57;;;12.43;;
28587;SDS011;15787;49.662;10.162;2023-02-13T00:55:01;149.38;;;13.90;;
28587;SDS011;15787;49.662;10.162;2023-02-13T00:57:34;125.75;;;12.50;;
28587;SDS011;15787;49.662;10.162;2023-02-13T01:00:10;194.88;;;15.32;;
28587;SDS011;15787;49.662;10.162;2023-02-13T01:02:45;145.43;;;13.40;;
28587;SDS011;15787;49.662;10.162;2023-02-13T01:05:18;118.93;;;12.80;;
28587;SDS011;15787;49.662;10.162;2023-02-13T01:07:53;116.30;;;13.27;;
28587;SDS011;15787;49.662;10.162;2023-02-13T01:10:26;136.52;;;13.57;;
28587;SDS011;15787;49.662;10.162;2023-02-13T01:12:59;113.20;;;13.25;;
28587;SDS011;15787;49.662;10.162;2023-02-13T01:15:34;121.20;;;12.57;;
28587;SDS011;15787;49.662;10.162;2023-02-13T01:18:08;80.22;;;10.32;;
28587;SDS011;15787;49.662;10.162;2023-02-13T01:20:41;89.72;;;11.65;;
28587;SDS011;15787;49.662;10.162;2023-02-13T01:23:15;76.38;;;11.30;;
28587;SDS011;15787;49.662;10.162;2023-02-13T01:25:51;135.35;;;12.88;;
28587;SDS011;15787;49.662;10.162;2023-02-13T01:28:24;104.55;;;12.18;;
28587;SDS011;15787;49.662;10.162;2023-02-13T01:30:58;56.30;;;10.82;;
28587;SDS011;15787;49.662;10.162;2023-02-13T01:33:34;114.55;;;15.23;;
28587;SDS011;15787;49.662;10.162;2023-02-13T01:36:09;58.72;;;11.55;;
28587;SDS011;15787;49.662;10.162;2023-02-13T01:38:44;52.60;;;9.18;;
28587;SDS011;15787;49.662;10.162;2023-02-13T01:41:17;76.28;;;9.70;;
28587;SDS011;15787;49.662;10.162;2023-02-13T01:43:51;76.38;;;10.73;;
28587;SDS011;15787;49.662;10.162;2023-02-13T01:46:28;53.33;;;9.60;;
28587;SDS011;15787;49.662;10.162;2023-02-13T01:49:08;66.53;;;10.25;;
28587;SDS011;15787;49.662;10.162;2023-02-13T01:51:44;79.80;;;11.60;;
28587;SDS011;15787;49.662;10.162;2023-02-13T01:54:22;88.90;;;10.82;;
28587;SDS011;15787;49.662;10.162;2023-02-13T01:57:07;59.50;;;10.63;;
28587;SDS011;15787;49.662;10.162;2023-02-13T01:59:45;35.55;;;9.25;;
28587;SDS011;15787;49.662;10.162;2023-02-13T02:02:26;51.92;;;10.95;;
28587;SDS011;15787;49.662;10.162;2023-02-13T02:05:03;47.50;;;10.27;;
28587;SDS011;15787;49.662;10.162;2023-02-13T02:07:38;47.50;;;9.05;;
28587;SDS011;15787;49.662;10.162;2023-02-13T02:10:13;87.68;;;11.38;;
28587;SDS011;15787;49.662;10.162;2023-02-13T02:12:51;73.70;;;10.43;;
28587;SDS011;15787;49.662;10.162;2023-02-13T02:15:32;129.38;;;12.90;;
28587;SDS011;15787;49.662;10.162;2023-02-13T02:18:09;66.40;;;11.15;;
28587;SDS011;15787;49.662;10.162;2023-02-13T02:30:30;102.65;;;11.40;;
28587;SDS011;15787;49.662;10.162;2023-02-13T02:33:28;78.10;;;10.70;;
28587;SDS011;15787;49.662;10.162;2023-02-13T02:36:13;68.85;;;10.43;;
28587;SDS011;15787;49.662;10.162;2023-02-13T02:39:02;72.93;;;10.90;;
28587;SDS011;15787;49.662;10.162;2023-02-13T02:41:44;52.08;;;10.60;;
28587;SDS011;15787;49.662;10.162;2023-02-13T02:44:30;84.18;;;10.75;;
28587;SDS011;15787;49.662;10.162;2023-02-13T02:47:10;68.13;;;10.55;;
28587;SDS011;15787;49.662;10.162;2023-02-13T02:50:15;82.75;;;12.20;;
28587;SDS011;15787;49.662;10.162;2023-02-13T02:53:03;79.93;;;11.52;;
28587;SDS011;15787;49.662;10.162;2023-02-13T02:55:45;141.65;;;11.88;;
28587;SDS011;15787;49.662;10.162;2023-02-13T02:58:23;84.75;;;10.90;;
28587;SDS011;15787;49.662;10.162;2023-02-13T03:01:18;66.18;;;10.57;;
28587;SDS011;15787;49.662;10.162;2023-02-13T03:04:17;91.13;;;10.10;;
28587;SDS011;15787;49.662;10.162;2023-02-13T03:07:13;67.63;;;11.00;;
28587;SDS011;15787;49.662;10.162;2023-02-13T03:09:50;90.88;;;10.95;;
28587;SDS011;15787;49.662;10.162;2023-02-13T03:12:45;165.98;;;14.38;;
28587;SDS011;15787;49.662;10.162;2023-02-13T03:15:41;47.45;;;10.00;;
28587;SDS011;15787;49.662;10.162;2023-02-13T03:18:31;53.83;;;9.48;;
28587;SDS011;15787;49.662;10.162;2023-02-13T03:21:26;49.15;;;8.43;;
28587;SDS011;15787;49.662;10.162;2023-02-13T03:24:32;81.03;;;11.25;;
28587;SDS011;15787;49.662;10.162;2023-02-13T03:27:14;58.38;;;10.27;;
28587;SDS011;15787;49.662;10.162;2023-02-13T03:30:15;83.72;;;12.05;;
28587;SDS011;15787;49.662;10.162;2023-02-13T03:32:59;84.85;;;10.88;;
28587;SDS011;15787;49.662;10.162;2023-02-13T03:35:45;61.92;;;9.63;;
28587;SDS011;15787;49.662;10.162;2023-02-13T03:38:40;43.03;;;8.90;;
28587;SDS011;15787;49.662;10.162;2023-02-13T03:41:20;124.03;;;11.85;;
28587;SDS011;15787;49.662;10.162;2023-02-13T03:44:01;82.05;;;9.43;;
28587;SDS011;15787;49.662;10.162;2023-02-13T03:46:41;48.25;;;8.20;;
28587;SDS011;15787;49.662;10.162;2023-02-13T03:49:18;31.45;;;7.85;;
28587;SDS011;15787;49.662;10.162;2023-02-13T03:52:12;78.55;;;11.48;;
28587;SDS011;15787;49.662;10.162;2023-02-13T03:54:51;60.05;;;8.75;;
28587;SDS011;15787;49.662;10.162;2023-02-13T03:57:47;50.33;;;8.07;;
28587;SDS011;15787;49.662;10.162;2023-02-13T04:00:42;50.92;;;8.30;;
28587;SDS011;15787;49.662;10.162;2023-02-13T04:03:19;51.53;;;8.05;;
28587;SDS011;15787;49.662;10.162;2023-02-13T04:05:57;54.70;;;8.38;;
28587;SDS011;15787;49.662;10.162;2023-02-13T04:08:35;40.10;;;8.93;;
28587;SDS011;15787;49.662;10.162;2023-02-13T04:11:09;42.40;;;10.30;;
28587;SDS011;15787;49.662;10.162;2023-02-13T04:13:48;54.67;;;9.65;;
28587;SDS011;15787;49.662;10.162;2023-02-13T04:16:27;38.85;;;7.75;;
28587;SDS011;15787;49.662;10.162;2023-02-13T04:19:04;46.33;;;8.98;;
28587;SDS011;15787;49.662;10.162;2023-02-13T04:21:39;46.33;;;9.02;;
28587;SDS011;15787;49.662;10.162;2023-02-13T04:24:12;26.42;;;8.52;;
28587;SDS011;15787;49.662;10.162;2023-02-13T04:26:45;43.70;;;8.70;;
28587;SDS011;15787;49.662;10.162;2023-02-13T04:29:19;27.95;;;7.70;;
28587;SDS011;15787;49.662;10.162;2023-02-13T04:31:53;33.65;;;8.48;;
28587;SDS011;15787;49.662;10.162;2023-02-13T04:34:26;22.58;;;7.97;;
28587;SDS011;15787;49.662;10.162;2023-02-13T04:36:58;34.72;;;8.30;;
28587;SDS011;15787;49.662;10.162;2023-02-13T04:39:31;35.35;;;8.98;;
28587;SDS011;15787;49.662;10.162;2023-02-13T04:42:04;30.77;;;8.32;;
28587;SDS011;15787;49.662;10.162;2023-02-13T04:44:38;20.00;;;7.45;;
28587;SDS011;15787;49.662;10.162;2023-02-13T04:47:11;63.95;;;9.15;;
28587;SDS011;15787;49.662;10.162;2023-02-13T04:49:44;24.25;;;7.13;;
28587;SDS011;15787;49.662;10.162;2023-02-13T04:52:17;26.25;;;7.85;;
28587;SDS011;15787;49.662;10.162;2023-02-13T04:54:50;44.08;;;8.40;;
28587;SDS011;15787;49.662;10.162;2023-02-13T04:57:22;57.58;;;8.77;;
28587;SDS011;15787;49.662;10.162;2023-02-13T04:59:57;19.23;;;6.85;;
28587;SDS011;15787;49.662;10.162;2023-02-13T05:02:30;27.92;;;7.88;;
28587;SDS011;15787;49.662;10.162;2023-02-13T05:05:03;55.75;;;8.38;;
28587;SDS011;15787;49.662;10.162;2023-02-13T05:07:37;39.60;;;8.65;;
28587;SDS011;15787;49.662;10.162;2023-02-13T05:10:10;22.63;;;8.57;;
28587;SDS011;15787;49.662;10.162;2023-02-13T05:12:44;57.05;;;8.80;;
28587;SDS011;15787;49.662;10.162;2023-02-13T05:15:18;38.97;;;7.88;;
28587;SDS011;15787;49.662;10.162;2023-02-13T05:17:53;41.47;;;7.70;;
28587;SDS011;15787;49.662;10.162;2023-02-13T05:20:26;17.83;;;6.97;;
28587;SDS011;15787;49.662;10.162;2023-02-13T05:22:59;10.95;;;6.13;;
28587;SDS011;15787;49.662;10.162;2023-02-13T05:25:49;20.70;;;6.60;;
28587;SDS011;15787;49.662;10.162;2023-02-13T05:28:22;41.50;;;7.85;;
28587;SDS011;15787;49.662;10.162;2023-02-13T05:31:14;64.03;;;8.80;;
28587;SDS011;15787;49.662;10.162;2023-02-13T05:33:46;45.40;;;7.85;;
28587;SDS011;15787;49.662;10.162;2023-02-13T05:36:19;25.30;;;6.68;;
28587;SDS011;15787;49.662;10.162;2023-02-13T05:38:52;39.67;;;7.60;;
28587;SDS011;15787;49.662;10.162;2023-02-13T05:41:25;41.95;;;7.07;;
28587;SDS011;15787;49.662;10.162;2023-02-13T05:43:58;68.47;;;7.85;;
28587;SDS011;15787;49.662;10.162;2023-02-13T05:46:32;45.00;;;7.18;;
28587;SDS011;15787;49.662;10.162;2023-02-13T05:49:05;20.77;;;6.53;;
28587;SDS011;15787;49.662;10.162;2023-02-13T05:51:39;34.67;;;8.60;;
28587;SDS011;15787;49.662;10.162;2023-02-13T05:54:12;76.57;;;10.18;;
28587;SDS011;15787;49.662;10.162;2023-02-13T05:56:45;25.65;;;6.97;;
28587;SDS011;15787;49.662;10.162;2023-02-13T05:59:18;11.23;;;6.05;;
28587;SDS011;15787;49.662;10.162;2023-02-13T06:01:55;145.32;;;9.82;;
28587;SDS011;15787;49.662;10.162;2023-02-13T06:04:28;29.33;;;6.72;;
28587;SDS011;15787;49.662;10.162;2023-02-13T06:07:01;42.15;;;6.80;;
28587;SDS011;15787;49.662;10.162;2023-02-13T06:09:34;13.93;;;6.22;;
28587;SDS011;15787;49.662;10.162;2023-02-13T06:12:06;80.22;;;7.90;;
28587;SDS011;15787;49.662;10.162;2023-02-13T06:14:39;55.80;;;7.90;;
28587;SDS011;15787;49.662;10.162;2023-02-13T06:17:13;65.00;;;7.18;;
28587;SDS011;15787;49.662;10.162;2023-02-13T06:19:46;25.65;;;7.05;;
28587;SDS011;15787;49.662;10.162;2023-02-13T06:22:19;12.43;;;6.50;;
28587;SDS011;15787;49.662;10.162;2023-02-13T06:24:51;31.58;;;6.95;;
28587;SDS011;15787;49.662;10.162;2023-02-13T06:27:24;27.27;;;7.00;;
28587;SDS011;15787;49.662;10.162;2023-02-13T06:29:57;25.40;;;7.47;;
28587;SDS011;15787;49.662;10.162;2023-02-13T06:32:31;21.55;;;6.82;;
28587;SDS011;15787;49.662;10.162;2023-02-13T06:35:04;18.30;;;6.72;;
28587;SDS011;15787;49.662;10.162;2023-02-13T06:37:38;16.17;;;6.40;;
28587;SDS011;15787;49.662;10.162;2023-02-13T06:40:11;56.58;;;8.07;;
28587;SDS011;15787;49.662;10.162;2023-02-13T06:42:45;58.28;;;8.80;;
28587;SDS011;15787;49.662;10.162;2023-02-13T06:45:18;66.95;;;8.18;;
28587;SDS011;15787;49.662;10.162;2023-02-13T06:47:52;68.22;;;9.02;;
28587;SDS011;15787;49.662;10.162;2023-02-13T06:50:25;58.15;;;9.10;;
28587;SDS011;15787;49.662;10.162;2023-02-13T06:52:58;73.32;;;9.05;;
28587;SDS011;15787;49.662;10.162;2023-02-13T06:55:31;110.35;;;10.45;;
28587;SDS011;15787;49.662;10.162;2023-02-13T06:58:03;111.40;;;10.88;;
28587;SDS011;15787;49.662;10.162;2023-02-13T07:00:36;58.60;;;10.43;;
28587;SDS011;15787;49.662;10.162;2023-02-13T07:03:10;107.88;;;11.45;;
28587;SDS011;15787;49.662;10.162;2023-02-13T07:05:43;52.95;;;11.10;;
28587;SDS011;15787;49.662;10.162;2023-02-13T07:08:16;43.30;;;11.18;;
28587;SDS011;15787;49.662;10.162;2023-02-13T07:10:50;70.22;;;12.73;;
28587;SDS011;15787;49.662;10.162;2023-02-13T07:13:22;158.65;;;15.85;;
28587;SDS011;15787;49.662;10.162;2023-02-13T07:15:58;48.92;;;9.85;;
28587;SDS011;15787;49.662;10.162;2023-02-13T07:18:33;62.78;;;9.07;;
28587;SDS011;15787;49.662;10.162;2023-02-13T07:21:08;39.05;;;8.52;;
28587;SDS011;15787;49.662;10.162;2023-02-13T07:23:41;74.47;;;9.82;;
28587;SDS011;15787;49.662;10.162;2023-02-13T07:26:14;77.50;;;9.27;;
28587;SDS011;15787;49.662;10.162;2023-02-13T07:28:47;28.05;;;8.57;;
28587;SDS011;15787;49.662;10.162;2023-02-13T07:31:36;52.42;;;10.45;;
28587;SDS011;15787;49.662;10.162;2023-02-13T07:34:22;84.80;;;11.30;;
28587;SDS011;15787;49.662;10.162;2023-02-13T07:37:31;58.55;;;10.90;;
28587;SDS011;15787;49.662;10.162;2023-02-13T07:40:05;66.53;;;11.25;;
28587;SDS011;15787;49.662;10.162;2023-02-13T07:42:39;37.83;;;8.05;;
28587;SDS011;15787;49.662;10.162;2023-02-13T07:45:11;40.50;;;9.50;;
28587;SDS011;15787;49.662;10.162;2023-02-13T07:47:45;87.00;;;9.40;;
28587;SDS011;15787;49.662;10.162;2023-02-13T07:50:19;59.63;;;11.00;;
28587;SDS011;15787;49.662;10.162;2023-02-13T07:52:53;83.93;;;11.35;;
28587;SDS011;15787;49.662;10.162;2023-02-13T07:55:26;46.05;;;9.05;;
28587;SDS011;15787;49.662;10.162;2023-02-13T07:57:59;66.47;;;11.25;;
28587;SDS011;15787;49.662;10.162;2023-02-13T08:00:32;55.22;;;9.63;;
28587;SDS011;15787;49.662;10.162;2023-02-13T08:03:05;78.82;;;10.30;;
28587;SDS011;15787;49.662;10.162;2023-02-13T08:05:39;109.13;;;10.98;;
28587;SDS011;15787;49.662;10.162;2023-02-13T08:08:12;46.97;;;9.18;;
28587;SDS011;15787;49.662;10.162;2023-02-13T08:10:44;100.28;;;10.45;;
28587;SDS011;15787;49.662;10.162;2023-02-13T08:13:35;39.75;;;8.60;;
28587;SDS011;15787;49.662;10.162;2023-02-13T08:16:08;30.00;;;7.80;;
28587;SDS011;15787;49.662;10.162;2023-02-13T08:18:41;48.05;;;9.10;;
28587;SDS011;15787;49.662;10.162;2023-02-13T08:21:15;55.95;;;12.23;;
28587;SDS011;15787;49.662;10.162;2023-02-13T08:23:48;40.28;;;10.02;;
28587;SDS011;15787;49.662;10.162;2023-02-13T08:26:22;33.58;;;9.05;;
28587;SDS011;15787;49.662;10.162;2023-02-13T08:28:55;69.30;;;9.90;;
28587;SDS011;15787;49.662;10.162;2023-02-13T08:31:27;41.47;;;9.30;;
28587;SDS011;15787;49.662;10.162;2023-02-13T08:34:00;32.05;;;8.95;;
28587;SDS011;15787;49.662;10.162;2023-02-13T08:36:34;48.55;;;9.23;;
28587;SDS011;15787;49.662;10.162;2023-02-13T08:39:08;101.50;;;10.25;;
28587;SDS011;15787;49.662;10.162;2023-02-13T08:41:40;34.22;;;9.10;;
28587;SDS011;15787;49.662;10.162;2023-02-13T08:44:13;41.78;;;9.10;;
28587;SDS011;15787;49.662;10.162;2023-02-13T08:46:46;55.20;;;9.32;;
28587;SDS011;15787;49.662;10.162;2023-02-13T08:49:19;50.65;;;8.93;;
28587;SDS011;15787;49.662;10.162;2023-02-13T08:51:53;37.97;;;8.48;;
28587;SDS011;15787;49.662;10.162;2023-02-13T08:54:26;25.45;;;8.40;;
28587;SDS011;15787;49.662;10.162;2023-02-13T08:56:59;113.07;;;12.02;;
28587;SDS011;15787;49.662;10.162;2023-02-13T08:59:32;200.52;;;13.13;;
28587;SDS011;15787;49.662;10.162;2023-02-13T09:02:05;71.22;;;10.23;;
28587;SDS011;15787;49.662;10.162;2023-02-13T09:04:38;61.78;;;8.57;;
28587;SDS011;15787;49.662;10.162;2023-02-13T09:07:12;14.43;;;6.53;;
28587;SDS011;15787;49.662;10.162;2023-02-13T09:09:45;36.70;;;7.82;;
28587;SDS011;15787;49.662;10.162;2023-02-13T09:12:21;38.83;;;8.98;;
28587;SDS011;15787;49.662;10.162;2023-02-13T09:14:54;57.97;;;9.02;;
28587;SDS011;15787;49.662;10.162;2023-02-13T09:17:27;62.10;;;8.90;;
28587;SDS011;15787;49.662;10.162;2023-02-13T09:20:00;32.65;;;8.85;;
28587;SDS011;15787;49.662;10.162;2023-02-13T09:22:34;114.82;;;11.40;;
28587;SDS011;15787;49.662;10.162;2023-02-13T09:25:07;20.80;;;9.93;;
28587;SDS011;15787;49.662;10.162;2023-02-13T09:27:43;31.85;;;9.27;;
28587;SDS011;15787;49.662;10.162;2023-02-13T09:30:16;41.97;;;10.48;;
28587;SDS011;15787;49.662;10.162;2023-02-13T09:32:54;41.78;;;9.05;;
28587;SDS011;15787;49.662;10.162;2023-02-13T09:35:27;131.70;;;12.65;;
28587;SDS011;15787;49.662;10.162;2023-02-13T09:38:01;139.27;;;13.57;;
28587;SDS011;15787;49.662;10.162;2023-02-13T09:40:35;25.23;;;9.32;;
28587;SDS011;15787;49.662;10.162;2023-02-13T09:43:14;83.30;;;11.73;;
28587;SDS011;15787;49.662;10.162;2023-02-13T09:45:52;87.45;;;11.48;;
28587;SDS011;15787;49.662;10.162;2023-02-13T09:48:30;68.80;;;10.38;;
28587;SDS011;15787;49.662;10.162;2023-02-13T09:51:05;151.52;;;13.18;;
28587;SDS011;15787;49.662;10.162;2023-02-13T09:53:39;46.83;;;11.27;;
28587;SDS011;15787;49.662;10.162;2023-02-13T09:56:14;54.58;;;11.13;;
28587;SDS011;15787;49.662;10.162;2023-02-13T09:58:53;129.23;;;12.60;;
28587;SDS011;15787;49.662;10.162;2023-02-13T10:01:29;40.75;;;10.20;;
28587;SDS011;15787;49.662;10.162;2023-02-13T10:04:11;62.88;;;11.07;;
28587;SDS011;15787;49.662;10.162;2023-02-13T10:06:57;35.03;;;11.57;;
28587;SDS011;15787;49.662;10.162;2023-02-13T10:09:45;85.55;;;11.90;;
28587;SDS011;15787;49.662;10.162;2023-02-13T10:12:28;32.47;;;11.52;;
28587;SDS011;15787;49.662;10.162;2023-02-13T10:15:13;57.22;;;11.50;;
28587;SDS011;15787;49.662;10.162;2023-02-13T10:17:52;31.90;;;11.38;;
28587;SDS011;15787;49.662;10.162;2023-02-13T10:20:29;53.00;;;10.98;;
28587;SDS011;15787;49.662;10.162;2023-02-13T10:23:07;80.57;;;12.43;;
28587;SDS011;15787;49.662;10.162;2023-02-13T10:25:51;43.85;;;12.57;;
28587;SDS011;15787;49.662;10.162;2023-02-13T10:28:30;81.97;;;12.95;;
28587;SDS011;15787;49.662;10.162;2023-02-13T10:31:09;23.30;;;10.85;;
28587;SDS011;15787;49.662;10.162;2023-02-13T10:33:48;60.47;;;12.55;;
28587;SDS011;15787;49.662;10.162;2023-02-13T10:36:23;36.88;;;12.65;;
28587;SDS011;15787;49.662;10.162;2023-02-13T10:39:00;24.95;;;10.70;;
28587;SDS011;15787;49.662;10.162;2023-02-13T10:41:48;67.03;;;15.25;;
28587;SDS011;15787;49.662;10.162;2023-02-13T10:44:28;54.53;;;23.30;;
28587;SDS011;15787;49.662;10.162;2023-02-13T10:47:17;31.77;;;13.32;;
28587;SDS011;15787;49.662;10.162;2023-02-13T10:50:05;37.60;;;12.60;;
28587;SDS011;15787;49.662;10.162;2023-02-13T10:52:50;35.17;;;13.00;;
28587;SDS011;15787;49.662;10.162;2023-02-13T10:58:46;27.67;;;13.02;;
28587;SDS011;15787;49.662;10.162;2023-02-13T11:01:26;27.77;;;13.15;;
28587;SDS011;15787;49.662;10.162;2023-02-13T11:04:06;26.77;;;12.73;;
28587;SDS011;15787;49.662;10.162;2023-02-13T11:06:42;21.63;;;11.57;;
28587;SDS011;15787;49.662;10.162;2023-02-13T11:09:18;26.92;;;13.07;;
28587;SDS011;15787;49.662;10.162;2023-02-13T11:11:51;28.38;;;13.07;;
28587;SDS011;15787;49.662;10.162;2023-02-13T11:14:26;27.70;;;13.07;;
28587;SDS011;15787;49.662;10.162;2023-02-13T11:17:00;27.65;;;13.63;;
28587;SDS011;15787;49.662;10.162;2023-02-13T11:19:37;29.33;;;14.23;;
28587;SDS011;15787;49.662;10.162;2023-02-13T11:22:12;29.98;;;15.50;;
28587;SDS011;15787;49.662;10.162;2023-02-13T11:24:49;33.20;;;15.68;;
28587;SDS011;15787;49.662;10.162;2023-02-13T11:27:26;27.65;;;14.00;;
28587;SDS011;15787;49.662;10.162;2023-02-13T11:30:04;32.97;;;15.57;;
28587;SDS011;15787;49.662;10.162;2023-02-13T11:32:39;27.00;;;13.57;;
28587;SDS011;15787;49.662;10.162;2023-02-13T11:35:25;26.50;;;14.05;;
28587;SDS011;15787;49.662;10.162;2023-02-13T11:38:12;23.63;;;13.05;;
28587;SDS011;15787;49.662;10.162;2023-02-13T11:41:03;19.70;;;10.85;;
28587;SDS011;15787;49.662;10.162;2023-02-13T11:43:42;25.23;;;12.30;;
28587;SDS011;15787;49.662;10.162;2023-02-13T11:48:57;25.85;;;12.27;;
28587;SDS011;15787;49.662;10.162;2023-02-13T11:51:40;27.35;;;13.65;;
28587;SDS011;15787;49.662;10.162;2023-02-13T11:54:26;27.23;;;13.60;;
28587;SDS011;15787;49.662;10.162;2023-02-13T11:57:08;25.92;;;13.23;;
28587;SDS011;15787;49.662;10.162;2023-02-13T11:59:51;26.75;;;14.45;;
28587;SDS011;15787;49.662;10.162;2023-02-13T12:02:27;28.25;;;14.57;;
28587;SDS011;15787;49.662;10.162;2023-02-13T12:07:50;31.27;;;15.13;;
28587;SDS011;15787;49.662;10.162;2023-02-13T12:10:32;30.23;;;14.43;;
28587;SDS011;15787;49.662;10.162;2023-02-13T12:13:11;26.63;;;14.07;;
28587;SDS011;15787;49.662;10.162;2023-02-13T12:15:54;25.92;;;13.82;;
28587;SDS011;15787;49.662;10.162;2023-02-13T12:18:33;27.20;;;14.93;;
28587;SDS011;15787;49.662;10.162;2023-02-13T12:21:15;27.98;;;14.40;;
28587;SDS011;15787;49.662;10.162;2023-02-13T12:23:59;26.33;;;14.20;;
28587;SDS011;15787;49.662;10.162;2023-02-13T12:26:38;29.02;;;15.18;;
28587;SDS011;15787;49.662;10.162;2023-02-13T12:32:18;30.42;;;16.33;;
28587;SDS011;15787;49.662;10.162;2023-02-13T12:34:56;29.35;;;15.88;;
28587;SDS011;15787;49.662;10.162;2023-02-13T12:37:46;33.92;;;17.23;;
28587;SDS011;15787;49.662;10.162;2023-02-13T12:40:41;34.03;;;15.60;;
28587;SDS011;15787;49.662;10.162;2023-02-13T12:43:33;32.38;;;16.05;;
28587;SDS011;15787;49.662;10.162;2023-02-13T12:46:30;31.00;;;15.50;;
28587;SDS011;15787;49.662;10.162;2023-02-13T12:51:53;28.38;;;13.88;;
28587;SDS011;15787;49.662;10.162;2023-02-13T12:54:38;30.92;;;15.65;;
28587;SDS011;15787;49.662;10.162;2023-02-13T12:57:26;28.10;;;14.10;;
28587;SDS011;15787;49.662;10.162;2023-02-13T13:00:17;28.80;;;15.93;;
28587;SDS011;15787;49.662;10.162;2023-02-13T13:03:05;27.10;;;15.60;;
28587;SDS011;15787;49.662;10.162;2023-02-13T13:06:03;30.73;;;16.95;;
28587;SDS011;15787;49.662;10.162;2023-02-13T13:08:58;31.58;;;17.30;;
28587;SDS011;15787;49.662;10.162;2023-02-13T13:11:44;29.02;;;16.52;;
28587;SDS011;15787;49.662;10.162;2023-02-13T13:14:34;29.35;;;16.27;;
28587;SDS011;15787;49.662;10.162;2023-02-13T13:17:13;30.88;;;16.20;;
28587;SDS011;15787;49.662;10.162;2023-02-13T13:19:57;29.30;;;16.13;;
28587;SDS011;15787;49.662;10.162;2023-02-13T13:22:45;31.85;;;16.95;;
28587;SDS011;15787;49.662;10.162;2023-02-13T13:25:26;31.77;;;17.30;;
28587;SDS011;15787;49.662;10.162;2023-02-13T13:28:06;30.52;;;16.02;;
28587;SDS011;15787;49.662;10.162;2023-02-13T13:30:45;30.83;;;16.65;;
28587;SDS011;15787;49.662;10.162;2023-02-13T13:33:20;27.95;;;15.63;;
28587;SDS011;15787;49.662;10.162;2023-02-13T13:35:57;30.23;;;15.60;;
28587;SDS011;15787;49.662;10.162;2023-02-13T13:38:37;31.00;;;16.73;;
28587;SDS011;15787;49.662;10.162;2023-02-13T13:41:20;32.30;;;15.50;;
28587;SDS011;15787;49.662;10.162;2023-02-13T13:44:04;31.15;;;16.40;;
28587;SDS011;15787;49.662;10.162;2023-02-13T13:46:53;31.35;;;17.17;;
28587;SDS011;15787;49.662;10.162;2023-02-13T13:49:33;28.05;;;16.58;;
28587;SDS011;15787;49.662;10.162;2023-02-13T13:52:09;31.67;;;17.00;;
28587;SDS011;15787;49.662;10.162;2023-02-13T13:54:51;30.80;;;16.80;;
28587;SDS011;15787;49.662;10.162;2023-02-13T13:57:25;29.92;;;16.58;;
28587;SDS011;15787;49.662;10.162;2023-02-13T14:05:57;33.70;;;17.35;;
28587;SDS011;15787;49.662;10.162;2023-02-13T14:08:55;31.23;;;17.50;;
28587;SDS011;15787;49.662;10.162;2023-02-13T14:11:31;34.95;;;18.05;;
28587;SDS011;15787;49.662;10.162;2023-02-13T14:20:36;30.63;;;18.38;;
28587;SDS011;15787;49.662;10.162;2023-02-13T14:23:27;28.65;;;16.90;;
28587;SDS011;15787;49.662;10.162;2023-02-13T14:29:16;29.38;;;16.77;;
28587;SDS011;15787;49.662;10.162;2023-02-13T14:32:12;31.70;;;17.00;;
28587;SDS011;15787;49.662;10.162;2023-02-13T14:34:52;26.73;;;15.70;;
28587;SDS011;15787;49.662;10.162;2023-02-13T14:37:29;29.15;;;16.77;;
28587;SDS011;15787;49.662;10.162;2023-02-13T14:46:07;25.83;;;15.68;;
28587;SDS011;15787;49.662;10.162;2023-02-13T14:48:51;27.13;;;15.70;;
28587;SDS011;15787;49.662;10.162;2023-02-13T14:51:32;27.45;;;15.40;;
28587;SDS011;15787;49.662;10.162;2023-02-13T14:54:08;24.85;;;14.88;;
28587;SDS011;15787;49.662;10.162;2023-02-13T14:56:51;22.05;;;14.10;;
28587;SDS011;15787;49.662;10.162;2023-02-13T14:59:27;25.85;;;15.10;;
28587;SDS011;15787;49.662;10.162;2023-02-13T15:02:08;19.93;;;12.87;;
28587;SDS011;15787;49.662;10.162;2023-02-13T15:04:48;20.92;;;13.18;;
28587;SDS011;15787;49.662;10.162;2023-02-13T15:07:29;21.73;;;12.85;;
28587;SDS011;15787;49.662;10.162;2023-02-13T15:10:27;21.40;;;13.00;;
28587;SDS011;15787;49.662;10.162;2023-02-13T15:13:12;18.25;;;12.35;;
28587;SDS011;15787;49.662;10.162;2023-02-13T15:15:51;21.80;;;12.45;;
28587;SDS011;15787;49.662;10.162;2023-02-13T15:18:28;15.95;;;10.57;;
28587;SDS011;15787;49.662;10.162;2023-02-13T15:23:47;16.70;;;10.60;;
28587;SDS011;15787;49.662;10.162;2023-02-13T15:26:22;17.60;;;10.57;;
28587;SDS011;15787;49.662;10.162;2023-02-13T15:28:58;17.20;;;10.60;;
28587;SDS011;15787;49.662;10.162;2023-02-13T15:31:33;16.77;;;10.10;;
28587;SDS011;15787;49.662;10.162;2023-02-13T15:34:17;18.15;;;10.55;;
28587;SDS011;15787;49.662;10.162;2023-02-13T15:36:52;16.33;;;10.73;;
28587;SDS011;15787;49.662;10.162;2023-02-13T15:39:27;16.33;;;10.43;;
28587;SDS011;15787;49.662;10.162;2023-02-13T15:42:01;14.25;;;9.82;;
28587;SDS011;15787;49.662;10.162;2023-02-13T15:44:35;15.25;;;9.93;;
28587;SDS011;15787;49.662;10.162;2023-02-13T15:47:14;14.38;;;9.07;;
28587;SDS011;15787;49.662;10.162;2023-02-13T15:49:49;15.70;;;9.73;;
28587;SDS011;15787;49.662;10.162;2023-02-13T15:52:24;18.33;;;12.05;;
28587;SDS011;15787;49.662;10.162;2023-02-13T15:55:03;13.00;;;9.18;;
28587;SDS011;15787;49.662;10.162;2023-02-13T15:57:36;19.30;;;10.40;;
28587;SDS011;15787;49.662;10.162;2023-02-13T16:00:12;16.52;;;9.40;;
28587;SDS011;15787;49.662;10.162;2023-02-13T16:02:51;17.35;;;9.80;;